createdAt,value
2018-09-05T00:04:22.470Z,5.30
2018-09-05T00:09:24.600Z,6.40
2018-09-05T00:14:26.745Z,4.53
2018-09-05T00:19:28.866Z,4.50
2018-09-05T00:24:31.031Z,5.23
2018-09-05T00:29:33.212Z,5.93
2018-09-05T00:34:35.397Z,5.40
2018-09-05T00:39:37.547Z,5.90
2018-09-05T00:44:39.660Z,5.03
2018-09-05T00:49:41.785Z,4.73
2018-09-05T00:54:43.920Z,7.43
2018-09-05T00:59:46.078Z,4.37
2018-09-05T01:04:48.395Z,4.73
2018-09-05T01:09:50.578Z,5.03
2018-09-05T01:14:53.596Z,5.97
2018-09-05T01:19:55.730Z,6.53
2018-09-05T01:24:57.854Z,5.13
2018-09-05T01:30:00.022Z,5.70
2018-09-05T01:35:02.166Z,4.80
2018-09-05T01:40:04.391Z,6.07
2018-09-05T01:45:06.553Z,7.63
2018-09-05T01:50:08.684Z,7.20
2018-09-05T01:55:10.827Z,5.40
2018-09-05T02:00:18.703Z,5.80
2018-09-05T02:05:20.847Z,6.33
2018-09-05T02:10:23.007Z,6.33
2018-09-05T02:15:25.248Z,5.67
2018-09-05T02:20:27.426Z,7.67
2018-09-05T02:25:29.570Z,7.50
2018-09-05T02:30:31.677Z,8.73
2018-09-05T02:35:33.819Z,5.60
2018-09-05T02:40:36.014Z,6.13
2018-09-05T02:45:38.134Z,12.63
2018-09-05T02:50:40.295Z,8.23
2018-09-05T02:55:48.045Z,8.23
2018-09-05T03:00:50.203Z,7.10
2018-09-05T03:05:52.530Z,6.23
2018-09-05T03:10:54.682Z,10.73
2018-09-05T03:15:56.793Z,5.93
2018-09-05T03:20:58.914Z,6.13
2018-09-05T03:26:01.091Z,6.50
2018-09-05T03:31:03.246Z,5.90
2018-09-05T03:36:05.391Z,5.83
2018-09-05T03:41:07.522Z,7.07
2018-09-05T03:46:09.641Z,7.27
2018-09-05T03:51:11.791Z,6.13
2018-09-05T03:56:13.953Z,7.33
2018-09-05T04:01:16.105Z,9.37
2018-09-05T04:06:20.715Z,7.67
2018-09-05T04:11:22.833Z,8.40
2018-09-05T04:16:24.986Z,7.80
2018-09-05T04:21:27.156Z,8.90
2018-09-05T04:26:29.272Z,9.10
2018-09-05T04:31:31.422Z,10.87
2018-09-05T04:36:33.567Z,8.13
2018-09-05T04:41:35.726Z,9.50
2018-09-05T04:46:37.881Z,13.63
2018-09-05T04:51:40.053Z,11.57
2018-09-05T04:56:42.170Z,10.63
2018-09-05T05:01:44.322Z,10.03
2018-09-05T05:06:46.528Z,13.03
2018-09-05T05:11:48.681Z,9.40
2018-09-05T05:16:51.014Z,13.00
2018-09-05T05:21:53.156Z,12.30
2018-09-05T05:26:55.338Z,13.27
2018-09-05T05:31:57.502Z,17.70
2018-09-05T05:36:59.628Z,28.70
2018-09-05T05:42:01.745Z,24.23
2018-09-05T05:47:03.880Z,27.37
2018-09-05T05:52:05.928Z,18.63
2018-09-05T05:57:08.005Z,21.97
2018-09-05T06:02:10.174Z,19.70
2018-09-05T06:07:12.309Z,17.23
2018-09-05T06:12:14.537Z,14.33
2018-09-05T06:17:16.643Z,10.37
2018-09-05T06:22:18.905Z,12.93
2018-09-05T06:27:21.058Z,14.50
2018-09-05T06:32:23.215Z,8.50
2018-09-05T06:37:25.301Z,12.50
2018-09-05T06:42:27.438Z,10.10
2018-09-05T06:47:29.576Z,12.83
2018-09-05T06:52:31.707Z,13.47
2018-09-05T06:57:34.232Z,9.37
2018-09-05T07:02:36.434Z,7.63
2018-09-05T07:07:38.581Z,7.87
2018-09-05T07:12:40.772Z,9.70
2018-09-05T07:17:42.906Z,8.67
2018-09-05T07:22:45.018Z,7.40
2018-09-05T07:27:47.140Z,9.17
2018-09-05T07:32:49.301Z,7.60
2018-09-05T07:37:51.432Z,9.63
2018-09-05T07:42:53.602Z,8.50
2018-09-05T07:47:55.766Z,7.93
2018-09-05T07:52:58.169Z,8.77
2018-09-05T07:58:00.433Z,10.70
2018-09-05T08:03:02.972Z,9.00
2018-09-05T08:08:05.128Z,9.40
2018-09-05T08:13:07.295Z,8.73
2018-09-05T08:18:09.499Z,11.30
2018-09-05T08:23:11.645Z,7.80
2018-09-05T08:28:13.752Z,7.73
2018-09-05T08:33:15.931Z,7.20
2018-09-05T08:38:18.123Z,11.33
2018-09-05T08:43:20.317Z,6.87
2018-09-05T08:48:22.542Z,5.77
2018-09-05T08:53:24.580Z,6.60
2018-09-05T08:58:26.755Z,8.43
2018-09-05T09:03:29.067Z,5.50
2018-09-05T09:08:31.196Z,7.43
2018-09-05T09:13:33.337Z,5.67
2018-09-05T09:18:35.511Z,12.40
2018-09-05T09:23:37.910Z,6.10
2018-09-05T09:28:40.053Z,5.40
2018-09-05T09:33:42.227Z,6.20
2018-09-05T09:38:44.356Z,6.80
2018-09-05T09:43:46.503Z,5.23
2018-09-05T09:48:48.663Z,6.60
2018-09-05T09:53:51.724Z,5.73
2018-09-05T09:58:53.955Z,6.40
2018-09-05T10:04:01.755Z,5.20
2018-09-05T10:09:12.441Z,5.57
2018-09-05T10:14:20.361Z,5.17
2018-09-05T10:19:22.526Z,5.83
2018-09-05T10:24:24.666Z,5.47
2018-09-05T10:29:26.842Z,5.90
2018-09-05T10:34:28.991Z,5.43
2018-09-05T10:39:31.145Z,5.37
2018-09-05T10:44:33.294Z,6.63
2018-09-05T10:49:35.422Z,5.93
2018-09-05T10:54:37.586Z,5.77
2018-09-05T10:59:39.717Z,5.37
2018-09-05T11:04:41.886Z,5.40
2018-09-05T11:09:44.012Z,8.27
2018-09-05T11:14:46.158Z,4.60
2018-09-05T11:19:48.262Z,5.47
2018-09-05T11:24:50.407Z,9.23
2018-09-05T11:29:52.537Z,4.47
2018-09-05T11:34:54.702Z,3.97
2018-09-05T11:39:56.854Z,4.27
2018-09-05T11:44:59.067Z,4.80
2018-09-05T11:50:01.197Z,7.87
2018-09-05T11:55:03.440Z,8.60
2018-09-05T12:00:49.727Z,5.10
2018-09-05T12:05:51.922Z,6.07
2018-09-05T12:10:54.076Z,4.50
2018-09-05T12:15:56.196Z,4.27
2018-09-05T12:20:58.322Z,6.70
2018-09-05T12:26:00.485Z,4.63
2018-09-05T12:31:02.637Z,3.83
2018-09-05T12:36:04.817Z,5.10
2018-09-05T12:41:06.939Z,4.20
2018-09-05T12:46:09.350Z,4.00
2018-09-05T12:51:11.527Z,5.50
2018-09-05T12:56:13.658Z,4.30
2018-09-05T13:01:15.842Z,4.03
2018-09-05T13:06:17.994Z,4.37
2018-09-05T13:11:20.326Z,3.67
2018-09-05T13:16:22.482Z,4.03
2018-09-05T13:21:24.664Z,5.13
2018-09-05T13:26:26.822Z,4.03
2018-09-05T13:31:28.926Z,3.60
2018-09-05T13:36:31.156Z,3.87
2018-09-05T13:41:33.357Z,4.23
2018-09-05T13:46:35.700Z,4.03
2018-09-05T13:51:38.109Z,3.43
2018-09-05T13:56:40.303Z,3.83
2018-09-05T14:01:42.483Z,5.53
2018-09-05T14:06:44.655Z,3.70
2018-09-05T14:11:46.875Z,3.70
2018-09-05T14:16:48.999Z,3.57
2018-09-05T14:21:51.212Z,3.90
2018-09-05T14:26:53.396Z,6.13
2018-09-05T14:31:55.594Z,3.40
2018-09-05T14:36:57.822Z,3.77
2018-09-05T14:42:00.002Z,3.83
2018-09-05T14:47:02.209Z,3.43
2018-09-05T14:52:04.383Z,3.97
2018-09-05T14:57:06.632Z,5.70
2018-09-05T15:02:08.825Z,4.03
2018-09-05T15:07:11.074Z,5.27
2018-09-05T15:12:13.256Z,4.23
2018-09-05T15:17:15.490Z,3.90
2018-09-05T15:22:17.687Z,3.70
2018-09-05T15:27:19.855Z,4.40
2018-09-05T15:32:22.107Z,5.20
2018-09-05T15:37:24.256Z,3.80
2018-09-05T15:42:26.594Z,3.40
2018-09-05T15:47:28.735Z,4.07
2018-09-05T15:52:30.896Z,3.80
2018-09-05T15:57:33.130Z,3.30
2018-09-05T16:02:35.240Z,15.93
2018-09-05T16:07:37.436Z,51.53
2018-09-05T16:12:39.591Z,51.93
2018-09-05T16:17:41.755Z,23.10
2018-09-05T16:22:43.905Z,17.00
2018-09-05T16:27:46.088Z,9.60
2018-09-05T16:32:48.241Z,8.90
2018-09-05T16:37:50.430Z,7.73
2018-09-05T16:42:52.656Z,5.03
2018-09-05T16:47:54.901Z,5.03
2018-09-05T16:52:57.096Z,6.13
2018-09-05T16:57:59.273Z,4.23
2018-09-05T17:03:01.459Z,5.60
2018-09-05T17:08:03.957Z,4.37
2018-09-05T17:13:06.169Z,4.67
2018-09-05T17:18:08.394Z,3.93
2018-09-05T17:23:10.581Z,4.57
2018-09-05T17:28:12.772Z,4.13
2018-09-05T17:33:15.477Z,3.50
2018-09-05T17:38:17.951Z,3.93
2018-09-05T17:43:20.094Z,4.17
2018-09-05T17:48:22.316Z,4.17
2018-09-05T17:53:24.536Z,5.17
2018-09-05T17:58:26.743Z,3.90
2018-09-05T18:03:29.002Z,4.70
2018-09-05T18:08:31.260Z,4.67
2018-09-05T18:13:33.463Z,6.40
2018-09-05T18:18:35.723Z,6.17
2018-09-05T18:23:37.914Z,5.10
2018-09-05T18:28:40.100Z,5.70
2018-09-05T18:33:42.369Z,5.13
2018-09-05T18:38:44.507Z,7.30
2018-09-05T18:43:46.759Z,5.37
2018-09-05T18:48:48.966Z,5.27
2018-09-05T18:53:51.176Z,5.37
2018-09-05T18:58:55.159Z,6.50
2018-09-05T19:03:57.368Z,6.43
2018-09-05T19:08:59.610Z,4.90
2018-09-05T19:14:02.372Z,4.93
2018-09-05T19:19:04.715Z,6.80
2018-09-05T19:24:06.927Z,5.90
2018-09-05T19:29:09.132Z,5.00
2018-09-05T19:34:11.385Z,4.53
2018-09-05T19:39:13.629Z,5.13
2018-09-05T19:44:15.841Z,5.13
2018-09-05T19:49:18.094Z,4.80
2018-09-05T19:54:20.415Z,5.70
2018-09-05T19:59:22.704Z,6.30
2018-09-05T20:04:25.171Z,5.60
2018-09-05T20:09:27.504Z,5.33
2018-09-05T20:14:29.951Z,4.13
2018-09-05T20:19:32.167Z,4.90
2018-09-05T20:24:34.348Z,3.97
2018-09-05T20:29:36.586Z,4.70
2018-09-05T20:34:38.796Z,4.30
2018-09-05T20:39:41.257Z,4.70
2018-09-05T20:44:43.460Z,4.80
2018-09-05T20:49:45.662Z,4.33
2018-09-05T20:54:47.791Z,5.30
2018-09-05T20:59:49.960Z,4.27
2018-09-05T21:04:52.105Z,5.30
2018-09-05T21:09:54.289Z,4.27
2018-09-05T21:14:56.440Z,5.00
2018-09-05T21:19:58.587Z,4.37
2018-09-05T21:25:00.718Z,4.37
2018-09-05T21:30:02.910Z,4.93
2018-09-05T21:35:05.050Z,5.17
2018-09-05T21:40:07.257Z,4.80
2018-09-05T21:45:09.437Z,4.83
2018-09-05T21:50:11.619Z,4.33
2018-09-05T21:55:13.825Z,4.47
2018-09-05T22:00:15.954Z,6.60
2018-09-05T22:05:18.105Z,5.43
2018-09-05T22:10:20.527Z,4.80
2018-09-05T22:15:23.255Z,4.90
2018-09-05T22:20:25.400Z,5.77
2018-09-05T22:25:27.537Z,5.07
2018-09-05T22:30:30.486Z,5.67
2018-09-05T22:35:32.640Z,6.10
2018-09-05T22:40:40.431Z,5.23
2018-09-05T22:45:53.926Z,4.70
2018-09-05T22:52:10.449Z,6.40
2018-09-05T23:01:27.289Z,4.37
2018-09-05T23:06:42.612Z,6.60
2018-09-05T23:11:56.403Z,5.93
2018-09-05T23:19:18.568Z,7.03
2018-09-05T23:24:20.717Z,5.77
2018-09-05T23:29:23.343Z,6.20
2018-09-05T23:34:25.511Z,8.00
2018-09-05T23:39:27.621Z,4.60
2018-09-05T23:44:30.016Z,6.03
2018-09-05T23:49:32.124Z,7.07
2018-09-05T23:54:34.343Z,6.13
2018-09-05T23:59:36.588Z,5.50
